createdAt,value
2023-01-19T00:04:07.740Z,6.29
2023-01-19T00:08:23.950Z,6.41
2023-01-19T00:12:40.138Z,6.39
2023-01-19T00:16:56.287Z,6.19
2023-01-19T00:21:14.914Z,6.34
2023-01-19T00:25:31.117Z,6.46
2023-01-19T00:29:47.232Z,6.36
2023-01-19T00:34:04.604Z,6.13
2023-01-19T00:38:21.207Z,6.23
2023-01-19T00:42:48.538Z,6.27
2023-01-19T00:47:05.931Z,6.26
2023-01-19T00:51:22.113Z,6.00
2023-01-19T00:55:38.335Z,5.67
2023-01-19T00:59:54.472Z,5.90
2023-01-19T01:04:12.430Z,6.01
2023-01-19T01:08:28.639Z,5.86
2023-01-19T01:12:55.583Z,5.87
2023-01-19T01:17:15.106Z,5.74
2023-01-19T01:21:31.432Z,6.11
2023-01-19T01:25:47.962Z,5.89
2023-01-19T01:30:04.442Z,5.67
2023-01-19T01:34:20.734Z,5.61
2023-01-19T01:38:37.018Z,5.62
2023-01-19T01:42:53.388Z,5.52
2023-01-19T01:47:09.613Z,5.41
2023-01-19T01:51:29.017Z,5.02
2023-01-19T01:55:50.227Z,5.29
2023-01-19T02:00:07.563Z,5.34
2023-01-19T02:04:24.097Z,5.43
2023-01-19T02:09:11.008Z,5.36
2023-01-19T02:13:29.005Z,5.46
2023-01-19T02:17:45.369Z,5.38
2023-01-19T02:22:27.914Z,5.22
2023-01-19T02:26:47.222Z,5.57
2023-01-19T02:31:03.544Z,5.40
2023-01-19T02:35:20.659Z,5.43
2023-01-19T02:40:03.060Z,5.28
2023-01-19T02:44:21.171Z,5.54
2023-01-19T02:48:37.406Z,5.19
2023-01-19T02:52:56.255Z,5.47
2023-01-19T02:57:29.397Z,5.22
2023-01-19T03:02:13.390Z,5.26
2023-01-19T03:06:47.314Z,5.37
2023-01-19T03:11:05.245Z,5.67
2023-01-19T03:15:41.509Z,5.55
2023-01-19T03:19:58.203Z,5.53
2023-01-19T03:24:16.138Z,5.30
2023-01-19T03:28:33.655Z,4.60
2023-01-19T03:33:04.985Z,5.05
2023-01-19T03:37:22.782Z,4.82
2023-01-19T03:41:40.493Z,4.97
2023-01-19T03:45:57.447Z,4.77
2023-01-19T03:50:22.246Z,4.99
2023-01-19T03:54:38.752Z,4.96
2023-01-19T03:58:56.280Z,4.95
2023-01-19T04:03:18.198Z,4.77
2023-01-19T04:07:34.455Z,4.44
2023-01-19T04:11:50.941Z,4.93
2023-01-19T04:16:07.693Z,3.94
2023-01-19T04:20:23.923Z,4.02
2023-01-19T04:24:40.081Z,3.31
2023-01-19T04:28:56.345Z,3.62
2023-01-19T04:33:12.622Z,3.70
2023-01-19T04:37:28.980Z,3.84
2023-01-19T04:41:45.165Z,4.14
2023-01-19T04:46:01.435Z,4.15
2023-01-19T04:50:17.824Z,3.94
2023-01-19T04:54:34.238Z,3.96
2023-01-19T04:58:50.465Z,4.19
2023-01-19T05:03:06.873Z,4.18
2023-01-19T05:07:23.196Z,3.96
2023-01-19T05:11:39.528Z,4.14
2023-01-19T05:15:55.836Z,4.31
2023-01-19T05:20:15.832Z,4.23
2023-01-19T05:24:33.027Z,4.33
2023-01-19T05:28:50.575Z,4.45
2023-01-19T05:33:06.900Z,4.59
2023-01-19T05:37:23.174Z,4.57
2023-01-19T05:41:39.536Z,4.54
2023-01-19T05:45:55.788Z,4.36
2023-01-19T05:50:12.254Z,4.44
2023-01-19T05:54:29.533Z,4.54
2023-01-19T05:58:45.769Z,4.72
2023-01-19T06:03:02.966Z,4.43
2023-01-19T06:07:19.425Z,4.36
2023-01-19T06:11:35.659Z,4.58
2023-01-19T06:15:58.637Z,4.74
2023-01-19T06:20:15.128Z,4.81
2023-01-19T06:24:31.346Z,4.75
2023-01-19T06:28:48.892Z,4.78
2023-01-19T06:33:05.076Z,4.96
2023-01-19T06:37:21.403Z,5.02
2023-01-19T06:41:38.593Z,4.71
2023-01-19T06:45:56.380Z,4.97
2023-01-19T06:50:12.845Z,5.10
2023-01-19T06:54:29.063Z,4.98
2023-01-19T06:58:47.062Z,5.06
2023-01-19T07:03:03.768Z,4.69
2023-01-19T07:07:20.183Z,5.00
2023-01-19T07:11:36.881Z,4.73
2023-01-19T07:15:53.142Z,4.92
2023-01-19T07:20:13.264Z,4.97
2023-01-19T07:24:30.873Z,5.21
2023-01-19T07:28:50.094Z,5.33
2023-01-19T07:33:06.323Z,5.32
2023-01-19T07:37:22.618Z,5.26
2023-01-19T07:41:39.047Z,5.23
2023-01-19T07:46:02.119Z,4.96
2023-01-19T07:50:21.520Z,5.15
2023-01-19T07:54:38.229Z,5.50
2023-01-19T07:58:54.652Z,5.53
2023-01-19T08:03:11.098Z,5.51
2023-01-19T08:07:27.317Z,5.63
2023-01-19T08:11:43.576Z,5.68
2023-01-19T08:16:00.039Z,5.71
2023-01-19T08:20:16.408Z,5.46
2023-01-19T08:24:32.639Z,5.97
2023-01-19T08:28:49.035Z,5.90
2023-01-19T08:33:08.356Z,5.61
2023-01-19T08:37:25.089Z,5.64
2023-01-19T08:41:41.628Z,5.81
2023-01-19T08:45:57.971Z,5.69
2023-01-19T08:50:14.248Z,5.53
2023-01-19T08:54:30.510Z,5.71
2023-01-19T08:58:56.216Z,5.71
2023-01-19T09:03:21.868Z,5.50
2023-01-19T09:07:38.544Z,5.71
2023-01-19T09:11:55.981Z,5.89
2023-01-19T09:16:13.535Z,5.95
2023-01-19T09:20:31.490Z,6.05
2023-01-19T09:24:49.253Z,5.94
2023-01-19T09:29:07.543Z,5.74
2023-01-19T09:33:24.970Z,5.75
2023-01-19T09:37:41.301Z,5.89
2023-01-19T09:42:26.365Z,6.08
2023-01-19T09:46:44.958Z,5.41
2023-01-19T09:51:05.161Z,5.49
2023-01-19T09:55:27.795Z,5.71
2023-01-19T09:59:47.964Z,5.73
2023-01-19T10:04:28.488Z,5.58
2023-01-19T10:09:05.480Z,5.48
2023-01-19T10:13:45.270Z,5.69
2023-01-19T10:18:48.135Z,5.73
2023-01-19T10:23:16.535Z,5.88
2023-01-19T10:27:36.483Z,5.47
2023-01-19T10:32:17.014Z,5.36
2023-01-19T10:36:38.277Z,5.42
2023-01-19T10:40:54.549Z,5.31
2023-01-19T10:45:21.858Z,5.43
2023-01-19T10:49:42.866Z,5.46
2023-01-19T10:54:02.334Z,5.45
2023-01-19T10:58:30.413Z,5.65
2023-01-19T11:02:51.651Z,5.81
2023-01-19T11:07:31.786Z,6.06
2023-01-19T11:11:52.738Z,5.88
2023-01-19T11:16:29.319Z,5.80
2023-01-19T11:20:52.762Z,5.74
2023-01-19T11:25:20.627Z,5.60
2023-01-19T11:29:39.095Z,5.94
2023-01-19T11:34:01.252Z,5.29
2023-01-19T11:38:22.606Z,5.86
2023-01-19T11:42:38.875Z,5.85
2023-01-19T11:47:00.291Z,5.69
2023-01-19T11:51:20.340Z,5.65
2023-01-19T11:55:51.179Z,5.43
2023-01-19T12:00:22.426Z,5.67
2023-01-19T12:04:42.667Z,6.15
2023-01-19T12:09:28.254Z,5.93
2023-01-19T12:13:45.586Z,5.98
2023-01-19T12:18:03.600Z,5.26
2023-01-19T12:22:21.193Z,5.72
2023-01-19T12:26:49.274Z,5.17
2023-01-19T12:31:07.771Z,5.21
2023-01-19T12:36:05.191Z,5.14
2023-01-19T12:40:31.540Z,5.36
2023-01-19T12:44:50.329Z,5.39
2023-01-19T12:49:11.125Z,5.20
2023-01-19T12:53:27.472Z,5.29
2023-01-19T12:58:00.395Z,5.60
2023-01-19T13:02:28.935Z,5.29
2023-01-19T13:06:48.405Z,4.55
2023-01-19T13:11:10.533Z,5.17
2023-01-19T13:15:36.743Z,4.70
2023-01-19T13:20:05.503Z,4.97
2023-01-19T13:24:23.449Z,4.36
2023-01-19T13:28:50.088Z,4.77
2023-01-19T13:33:22.659Z,4.37
2023-01-19T13:37:43.906Z,4.24
2023-01-19T13:42:15.873Z,4.73
2023-01-19T13:46:33.858Z,3.97
2023-01-19T13:51:06.920Z,4.57
2023-01-19T13:55:24.186Z,4.82
2023-01-19T13:59:40.419Z,4.56
2023-01-19T14:03:56.805Z,4.29
2023-01-19T14:08:15.289Z,3.52
2023-01-19T14:12:38.963Z,3.19
2023-01-19T14:16:58.105Z,3.48
2023-01-19T14:21:17.908Z,3.56
2023-01-19T14:25:39.747Z,3.23
2023-01-19T14:30:14.307Z,3.47
2023-01-19T14:34:32.744Z,3.69
2023-01-19T14:38:50.253Z,3.47
2023-01-19T14:43:10.922Z,3.81
2023-01-19T14:47:46.969Z,3.98
2023-01-19T14:52:20.825Z,4.20
2023-01-19T14:56:39.535Z,4.13
2023-01-19T15:00:58.625Z,3.61
2023-01-19T15:05:15.754Z,3.46
2023-01-19T15:09:32.342Z,3.39
2023-01-19T15:13:51.470Z,3.12
2023-01-19T15:18:12.583Z,2.94
2023-01-19T15:22:30.245Z,3.41
2023-01-19T15:26:46.972Z,3.59
2023-01-19T15:31:03.809Z,3.37
2023-01-19T15:35:26.540Z,3.47
2023-01-19T15:39:42.879Z,2.99
2023-01-19T15:44:01.884Z,2.68
2023-01-19T15:48:20.314Z,3.16
2023-01-19T15:52:36.701Z,3.36
2023-01-19T15:56:53.208Z,2.91
2023-01-19T16:01:13.975Z,2.96
2023-01-19T16:05:42.602Z,3.49
2023-01-19T16:09:59.442Z,3.71
2023-01-19T16:14:17.473Z,2.70
2023-01-19T16:18:36.231Z,3.04
2023-01-19T16:22:54.972Z,2.34
2023-01-19T16:27:12.880Z,3.03
2023-01-19T16:31:29.568Z,2.79
2023-01-19T16:35:46.035Z,2.70
2023-01-19T16:40:02.601Z,2.58
2023-01-19T16:44:20.095Z,2.85
2023-01-19T16:48:36.497Z,2.99
2023-01-19T16:53:01.603Z,2.49
2023-01-19T16:57:18.625Z,2.25
2023-01-19T17:01:35.340Z,2.58
2023-01-19T17:05:52.095Z,2.11
2023-01-19T17:10:09.842Z,2.15
2023-01-19T17:14:26.320Z,1.98
2023-01-19T17:18:43.030Z,2.71
2023-01-19T17:22:59.429Z,2.37
2023-01-19T17:27:16.495Z,1.58
2023-01-19T17:31:36.053Z,1.93
2023-01-19T17:35:52.753Z,2.27
2023-01-19T17:40:10.041Z,2.18
2023-01-19T17:44:26.574Z,1.77
2023-01-19T17:48:43.305Z,2.49
2023-01-19T17:53:00.068Z,2.56
2023-01-19T17:57:16.587Z,2.56
2023-01-19T18:01:35.902Z,3.34
2023-01-19T18:05:56.272Z,2.76
2023-01-19T18:10:13.186Z,3.00
2023-01-19T18:14:29.776Z,3.12
2023-01-19T18:18:46.639Z,2.79
2023-01-19T18:23:03.044Z,2.81
2023-01-19T18:27:20.558Z,2.42
2023-01-19T18:31:37.679Z,2.95
2023-01-19T18:35:54.188Z,2.67
2023-01-19T18:40:11.582Z,2.89
2023-01-19T18:44:28.060Z,2.72
2023-01-19T18:48:44.632Z,2.67
2023-01-19T18:53:00.977Z,2.95
2023-01-19T18:57:18.157Z,2.66
2023-01-19T19:01:35.674Z,1.95
2023-01-19T19:05:52.621Z,1.79
2023-01-19T19:10:09.901Z,2.37
2023-01-19T19:14:26.266Z,2.48
2023-01-19T19:18:42.527Z,2.56
2023-01-19T19:22:58.704Z,2.53
2023-01-19T19:27:14.978Z,2.61
2023-01-19T19:31:32.046Z,2.40
2023-01-19T19:35:48.405Z,2.77
2023-01-19T19:40:04.861Z,2.84
2023-01-19T19:44:21.120Z,2.46
2023-01-19T19:48:39.226Z,2.37
2023-01-19T19:52:58.956Z,2.51
2023-01-19T19:57:15.115Z,2.07
2023-01-19T20:01:33.765Z,2.37
2023-01-19T20:05:50.471Z,2.61
2023-01-19T20:10:08.621Z,2.54
2023-01-19T20:14:25.007Z,2.32
2023-01-19T20:18:42.932Z,2.60
2023-01-19T20:23:00.439Z,2.55
2023-01-19T20:27:16.802Z,2.36
2023-01-19T20:31:35.523Z,2.40
2023-01-19T20:35:52.215Z,2.39
2023-01-19T20:40:09.719Z,2.40
2023-01-19T20:44:29.274Z,2.54
2023-01-19T20:48:52.046Z,2.78
2023-01-19T20:53:08.244Z,2.46
2023-01-19T20:57:24.539Z,2.44
2023-01-19T21:01:41.462Z,2.23
2023-01-19T21:05:59.889Z,2.32
2023-01-19T21:10:17.760Z,2.89
2023-01-19T21:14:33.945Z,3.02
2023-01-19T21:18:50.263Z,3.14
2023-01-19T21:23:06.455Z,3.27
2023-01-19T21:27:24.897Z,3.08
2023-01-19T21:31:42.005Z,2.98
2023-01-19T21:35:58.481Z,2.74
2023-01-19T21:40:14.877Z,2.46
2023-01-19T21:44:31.098Z,2.10
2023-01-19T21:48:47.934Z,2.67
2023-01-19T21:53:06.265Z,2.86
2023-01-19T21:57:22.485Z,2.63
2023-01-19T22:01:38.893Z,1.94
2023-01-19T22:05:56.204Z,2.66
2023-01-19T22:10:12.833Z,2.31
2023-01-19T22:14:29.224Z,2.87
2023-01-19T22:18:50.067Z,2.95
2023-01-19T22:23:06.309Z,2.87
2023-01-19T22:27:22.494Z,3.20
2023-01-19T22:31:41.010Z,2.89
2023-01-19T22:36:17.122Z,3.04
2023-01-19T22:40:33.549Z,3.05
2023-01-19T22:44:50.004Z,2.92
2023-01-19T22:49:07.960Z,3.29
2023-01-19T22:53:24.161Z,3.15
2023-01-19T22:57:40.475Z,3.02
2023-01-19T23:01:56.874Z,2.46
2023-01-19T23:06:15.531Z,2.99
2023-01-19T23:10:31.736Z,3.06
2023-01-19T23:14:47.981Z,3.26
2023-01-19T23:19:04.685Z,3.08
2023-01-19T23:23:21.072Z,2.99
2023-01-19T23:27:37.380Z,3.37
2023-01-19T23:31:55.045Z,2.96
2023-01-19T23:36:15.015Z,2.84
2023-01-19T23:40:31.253Z,3.07
2023-01-19T23:44:47.485Z,2.81
2023-01-19T23:49:03.701Z,2.72
2023-01-19T23:53:20.024Z,2.40
2023-01-19T23:57:36.238Z,2.76
